Latest Weather Observations for Kiama

IDN60801

Issued at 1:06 pm EDT Monday 26 January 2015 (issued every 30 minutes, with the page automatically refreshed every 10 minutes)

About weather observations | Map of weather stations | Latest weather observations for NSW | Other Formats
Station Details ID: 068242 Name: KIAMA (BOMBO HEADLAND) Lat: -34.65 Lon: 150.86 Height: 15.5 m
Data from the previous 72 hours. | See also: Recent months at Kiama
Date/Time
EDT
Temp
°C
App
Temp
°C
Dew
Point
Rel
Hum
%
Delta-T
°C
Wind Press
QNH
hPa
Press
MSL
hPa
Rain
since 9 am
mm
Dir
 
Spd
km/h
Gust
km/h
Spd
kts
Gust
kts
26/01:00pm 19.0 15.5 14.5 75 2.6 SSW 26 39 14 21 - - 0.0
26/12:30pm 19.4 15.8 14.2 72 3.0 SSW 26 35 14 19 - - 0.0
26/12:00pm 19.7 16.5 14.3 71 3.1 SSW 24 32 13 17 - - 0.0
26/11:30am 19.6 17.4 14.4 72 3.0 SSW 19 28 10 15 - - 0.0
26/11:00am 19.6 16.5 14.6 73 2.9 SSW 24 28 13 15 - - 0.0
26/10:30am 19.2 16.1 14.5 74 2.7 SSW 24 32 13 17 - - 0.0
26/10:00am 19.0 15.9 14.5 75 2.6 SSW 24 32 13 17 - - 0.0
26/09:30am 19.2 16.2 14.7 75 2.6 SSW 24 35 13 19 - - 0.0
26/09:00am 19.3 16.7 15.0 76 2.5 SSW 22 28 12 15 - - 0.6
26/08:30am 19.1 16.2 15.2 78 2.3 SSW 24 37 13 20 - - 0.6
26/08:00am 19.0 15.7 15.1 78 2.3 SSW 26 33 14 18 - - 0.6
26/07:30am 18.9 16.4 15.2 79 2.2 SSW 22 30 12 16 - - 0.6
26/07:00am 18.7 15.5 15.2 80 2.1 SSW 26 33 14 18 - - 0.6
26/06:30am 19.0 16.6 15.5 80 2.1 SSW 22 30 12 16 - - 0.6
26/06:00am 18.9 17.1 15.4 80 2.1 SSW 19 28 10 15 - - 0.6
26/05:30am 18.7 16.7 15.4 81 1.9 SSW 20 26 11 14 - - 0.6
26/05:00am 18.7 16.8 15.8 83 1.7 SSW 20 28 11 15 - - 0.6
26/04:30am 18.8 17.6 16.0 84 1.7 SSW 17 22 9 12 - - 0.6
26/04:00am 18.6 17.1 16.2 86 1.4 SSW 19 22 10 12 - - 0.6
26/03:30am 18.4 16.8 16.0 86 1.4 SSW 19 24 10 13 - - 0.4
26/03:00am 18.8 17.1 16.2 85 1.6 S 20 26 11 14 - - 0.4
26/02:30am 19.1 17.5 16.5 85 1.6 SSW 20 24 11 13 - - 0.4
26/02:00am 18.9 16.8 16.3 85 1.6 SSW 22 30 12 16 - - 0.2
26/01:30am 19.3 17.7 16.5 84 1.7 SSW 20 26 11 14 - - 0.2
26/01:00am 19.3 17.7 16.5 84 1.7 SSW 20 26 11 14 - - 0.2
26/12:30am 19.4 17.0 16.4 83 1.8 SSW 24 33 13 18 - - 0.2
26/12:00am 20.1 17.7 16.3 79 2.3 SSW 24 32 13 17 - - 0.2
 
Date/Time
EDT
Temp
°C
App
Temp
°C
Dew
Point
Rel
Hum
%
Delta-T
°C
Wind Press
QNH
hPa
Press
MSL
hPa
Rain
since 9 am
mm
Dir
 
Spd
km/h
Gust
km/h
Spd
kts
Gust
kts
25/11:30pm 20.2 18.5 16.2 78 2.4 SSW 20 32 11 17 - - 0.2
25/11:00pm 20.1 17.4 16.5 80 2.2 SSW 26 35 14 19 - - 0.2
25/10:30pm 20.4 17.2 16.4 78 2.4 SSW 28 37 15 20 - - 0.2
25/10:00pm 20.7 16.9 16.7 78 2.4 S 32 39 17 21 - - 0.2
25/09:30pm 21.0 17.0 16.8 77 2.6 S 33 44 18 24 - - 0.2
25/09:00pm 21.2 16.7 17.4 79 2.3 S 37 48 20 26 - - 0.2
25/08:30pm 21.5 18.5 17.7 79 2.3 S 30 41 16 22 - - 0.2
25/08:00pm 21.8 16.4 17.8 78 2.5 S 43 56 23 30 - - 0.2
25/07:30pm 22.0 16.0 17.8 77 2.6 S 46 61 25 33 - - 0.2
25/07:08pm 22.2 16.7 18.0 77 2.6 S 44 63 24 34 - - 0.2
25/07:00pm 22.3 17.0 18.1 77 2.6 S 43 54 23 29 - - 0.2
25/06:30pm 22.6 17.1 18.2 76 2.8 S 44 69 24 37 - - 0.2
25/06:08pm 23.0 15.8 18.5 76 2.8 S 54 72 29 39 - - 0.2
25/06:00pm 23.2 15.1 18.7 76 2.8 S 59 72 32 39 - - 0.2
25/05:30pm 23.9 16.0 19.2 75 3.0 S 59 74 32 40 - - 0.2
25/05:11pm 25.9 21.6 19.5 68 4.1 SSW 41 74 22 40 - - 0.2
25/05:09pm 26.9 24.6 19.3 63 4.9 SSW 30 74 16 40 - - 0.2
25/05:06pm 30.1 29.8 18.2 49 7.6 SSW 17 52 9 28 - - 0.2
25/05:00pm 31.5 31.7 14.2 35 10.5 S 6 13 3 7 - - 0.2
25/04:30pm 29.2 32.2 20.1 58 6.0 NE 4 7 2 4 - - 0.2
25/04:00pm 27.6 29.8 20.4 65 4.7 NE 9 17 5 9 - - 0.2
25/03:30pm 27.9 29.4 19.7 61 5.3 NNE 11 15 6 8 - - 0.2
25/03:00pm 26.6 28.6 20.0 67 4.3 NNE 9 13 5 7 - - 0.2
25/02:30pm 27.1 29.3 19.7 64 4.8 NE 7 13 4 7 - - 0.2
25/02:00pm 27.3 28.3 19.4 62 5.1 NNE 13 19 7 10 - - 0.2
25/01:30pm 28.1 28.5 18.2 55 6.3 NNE 13 20 7 11 - - 0.2
25/01:00pm 28.3 30.1 20.3 62 5.3 NNE 11 19 6 10 - - 0.2
25/12:30pm 27.6 29.3 20.2 64 4.8 NNE 11 17 6 9 - - 0.2
25/12:00pm 27.6 29.9 20.7 66 4.6 NNE 9 13 5 7 - - 0.2
25/11:30am 26.3 28.0 20.2 69 4.0 NNE 11 17 6 9 - - 0.2
25/11:00am 27.0 29.4 20.1 66 4.5 NNE 7 13 4 7 - - 0.2
25/10:30am 26.1 28.8 20.2 70 3.8 NNE 6 7 3 4 - - 0.2
25/10:00am 25.0 27.9 19.8 73 3.4 NE 4 7 2 4 - - 0.2
25/09:30am 25.0 27.8 20.5 76 2.9 NE 6 9 3 5 - - 0.2
25/09:00am 23.7 26.2 19.8 79 2.5 NE 6 9 3 5 - - 0.0
25/08:30am 23.9 26.6 20.2 80 2.4 ENE 6 7 3 4 - - 0.0
25/08:00am 23.0 26.3 20.0 83 1.9 NE 2 7 1 4 - - 0.0
25/07:30am 22.6 26.3 19.9 85 1.7 CALM 0 0 0 0 - - 0.0
25/07:00am 21.4 24.7 19.0 86 1.5 CALM 0 2 0 1 - - 0.0
25/06:30am 20.7 23.6 18.3 86 1.5 CALM 0 4 0 2 - - 0.0
25/06:00am 20.7 23.6 18.1 85 1.6 CALM 0 0 0 0 - - 0.0
25/05:30am 20.8 23.6 18.0 84 1.7 CALM 0 0 0 0 - - 0.0
25/05:00am 21.2 24.0 18.0 82 2.0 CALM 0 0 0 0 - - 0.0
25/04:30am 21.5 24.0 18.1 81 2.1 SSE 2 4 1 2 - - 0.0
25/04:00am 21.9 24.2 18.5 81 2.1 N 4 7 2 4 - - 0.0
25/03:30am 21.7 23.2 18.9 84 1.8 NNW 9 13 5 7 - - 0.0
25/03:00am 21.4 22.2 19.1 87 1.5 NW 13 17 7 9 - - 0.0
25/02:30am 21.4 23.5 19.3 88 1.3 NNW 7 11 4 6 - - 0.0
25/02:00am 22.1 24.5 20.0 88 1.3 NNW 7 13 4 7 - - 0.0
25/01:30am 22.3 24.9 20.4 89 1.2 NW 7 11 4 6 - - 0.0
25/01:00am 21.9 24.5 20.0 89 1.2 N 6 11 3 6 - - 0.0
25/12:30am 22.2 24.9 20.3 89 1.2 NW 6 11 3 6 - - 0.0
25/12:00am 22.4 24.6 20.5 89 1.2 NNW 9 13 5 7 - - 0.0
 
Date/Time
EDT
Temp
°C
App
Temp
°C
Dew
Point
Rel
Hum
%
Delta-T
°C
Wind Press
QNH
hPa
Press
MSL
hPa
Rain
since 9 am
mm
Dir
 
Spd
km/h
Gust
km/h
Spd
kts
Gust
kts
24/11:30pm 22.8 25.8 20.9 89 1.2 NW 6 9 3 5 - - 0.0
24/11:00pm 22.6 25.3 20.3 87 1.5 N 6 13 3 7 - - 0.0
24/10:30pm 23.3 27.4 20.8 86 1.6 CALM 0 6 0 3 - - 0.0
24/10:00pm 23.3 27.4 20.8 86 1.6 CALM 0 0 0 0 - - 0.0
24/09:30pm 23.6 27.8 20.9 85 1.8 CALM 0 0 0 0 - - 0.0
24/09:00pm 23.8 27.2 20.9 84 1.9 N 4 7 2 4 - - 0.0
24/08:30pm 24.0 27.1 21.1 84 1.9 NNW 6 9 3 5 - - 0.0
24/08:00pm 23.8 24.4 21.1 85 1.8 N 19 24 10 13 - - 0.0
24/07:30pm 23.6 24.9 20.9 85 1.8 N 15 19 8 10 - - 0.0
24/07:00pm 23.9 26.0 21.0 84 1.9 N 11 19 6 10 - - 0.0
24/06:30pm 23.8 25.9 20.9 84 1.9 N 11 17 6 9 - - 0.0
24/06:00pm 23.8 25.4 20.7 83 2.0 N 13 17 7 9 - - 0.0
24/05:30pm 23.6 24.1 20.1 81 2.3 N 17 22 9 12 - - 0.0
24/05:00pm 24.0 24.1 20.3 80 2.4 N 20 30 11 16 - - 0.0
24/04:30pm 24.3 24.3 20.2 78 2.7 N 20 26 11 14 - - 0.0
24/04:00pm 25.3 25.9 20.3 74 3.3 NNE 17 26 9 14 - - 0.0
24/03:30pm 25.4 25.2 20.6 75 3.1 NNE 22 32 12 17 - - 0.0
24/03:00pm 25.7 26.2 21.1 76 3.0 NNE 20 32 11 17 - - 0.0
24/02:30pm 25.3 25.9 21.0 77 2.8 NNE 19 28 10 15 - - 0.0
24/02:00pm 25.6 26.1 20.8 75 3.2 NNE 19 28 10 15 - - 0.0
24/01:30pm 26.0 27.3 20.8 73 3.4 NNE 15 22 8 12 - - 0.0
24/01:00pm 25.5 26.2 20.5 74 3.3 NNE 17 24 9 13 - - 0.0
24/12:30pm 25.7 26.7 21.1 76 3.0 NNE 17 24 9 13 - - 0.0
24/12:00pm 25.1 25.5 21.0 78 2.7 NNE 20 28 11 15 - - 0.0
24/11:30am 25.3 26.7 21.8 81 2.3 NNE 17 22 9 12 - - 0.0
24/11:00am 24.9 27.3 22.2 85 1.8 NNE 13 17 7 9 - - 0.0
24/10:30am 24.2 26.8 21.9 87 1.5 NE 11 15 6 8 - - 0.0
24/10:00am 23.9 27.9 22.0 89 1.3 ENE 4 7 2 4 - - 0.0
24/09:30am 22.9 27.3 21.4 91 1.0 CALM 0 0 0 0 - - 0.0
24/09:00am 22.4 26.6 21.0 92 0.9 CALM 0 0 0 0 - - 0.0
24/08:30am 21.8 25.7 20.4 92 0.9 CALM 0 4 0 2 - - 0.0
24/08:00am 21.7 23.9 20.5 93 0.8 SE 9 11 5 6 - - 0.0
24/07:30am 21.4 23.1 20.2 93 0.8 SE 11 15 6 8 - - 0.0
24/07:00am 21.3 22.2 20.1 93 0.8 SE 15 17 8 9 - - 0.0
24/06:30am 21.6 24.1 20.2 92 0.9 SSE 7 15 4 8 - - 0.0
24/06:00am 22.2 25.1 21.0 93 0.8 ESE 7 11 4 6 - - 0.0
24/05:30am 21.3 23.7 20.1 93 0.8 S 7 9 4 5 - - 0.0
24/05:00am 21.0 23.8 19.7 92 0.8 S 4 9 2 5 - - 0.0
24/04:30am 21.4 25.1 20.0 92 0.9 CALM 0 0 0 0 - - 0.0
24/04:00am 21.6 25.4 20.2 92 0.9 CALM 0 0 0 0 - - 0.0
24/03:30am 21.8 24.6 20.4 92 0.9 N 6 7 3 4 - - 0.0
24/03:00am 21.9 24.1 20.4 91 1.0 N 9 11 5 6 - - 0.0
24/02:30am 22.0 24.6 20.5 91 1.0 N 7 11 4 6 - - 0.0
24/02:00am 22.2 25.1 20.7 91 1.0 N 6 9 3 5 - - 0.0
24/01:30am 22.2 25.0 20.5 90 1.1 N 6 11 3 6 - - 0.0
24/01:00am 22.2 24.4 20.5 90 1.1 N 9 13 5 7 - - 0.0
24/12:30am 22.2 22.9 20.5 90 1.1 N 17 20 9 11 - - 0.0
24/12:00am 22.4 23.9 20.5 89 1.2 N 13 17 7 9 - - 0.0
 
Date/Time
EDT
Temp
°C
App
Temp
°C
Dew
Point
Rel
Hum
%
Delta-T
°C
Wind Press
QNH
hPa
Press
MSL
hPa
Rain
since 9 am
mm
Dir
 
Spd
km/h
Gust
km/h
Spd
kts
Gust
kts
23/11:30pm 22.8 24.9 20.9 89 1.2 N 11 19 6 10 - - 0.0
23/11:00pm 22.7 25.1 20.8 89 1.2 N 9 15 5 8 - - 0.0
23/10:30pm 22.6 22.8 20.5 88 1.4 N 20 26 11 14 - - 0.0
23/10:00pm 22.9 23.2 20.8 88 1.4 NNE 20 30 11 16 - - 0.0
23/09:30pm 22.9 23.3 20.6 87 1.5 N 19 24 10 13 - - 0.0
23/09:00pm 22.9 23.6 20.4 86 1.6 N 17 24 9 13 - - 0.0
23/08:30pm 23.1 22.5 20.6 86 1.6 NNE 24 35 13 19 - - 0.0
23/08:00pm 23.4 22.5 20.7 85 1.8 N 26 39 14 21 - - 0.0
23/07:30pm 23.8 22.1 20.5 82 2.1 NNE 30 39 16 21 - - 0.0
23/07:00pm 24.3 22.6 20.6 80 2.4 NNE 30 39 16 21 - - 0.0
23/06:30pm 24.6 22.7 20.9 80 2.4 NNE 32 43 17 23 - - 0.0
23/06:00pm 24.8 22.9 20.9 79 2.6 N 32 43 17 23 - - 0.0
23/05:30pm 25.1 23.7 21.2 79 2.6 N 30 43 16 23 - - 0.0
23/05:00pm 25.1 25.4 21.6 81 2.3 N 22 30 12 16 - - 0.0
23/04:30pm 24.7 24.5 21.2 81 2.3 N 24 33 13 18 - - 0.0
23/04:00pm 24.9 24.5 21.0 79 2.6 N 24 33 13 18 - - 0.0
23/03:30pm 25.6 26.3 21.5 78 2.7 NNE 20 30 11 16 - - 0.0
23/03:00pm 25.6 26.5 21.5 78 2.7 NNE 19 26 10 14 - - 0.0
23/02:30pm 25.7 26.5 21.8 79 2.6 NNE 20 28 11 15 - - 0.0
23/02:00pm 25.6 26.3 21.5 78 2.7 NNE 20 30 11 16 - - 0.0
23/01:30pm 25.3 25.6 21.6 80 2.5 NNE 22 33 12 18 - - 0.0

Other Formats:

Comma delimited format used in spreadsheet applications
http://www.bom.gov.au/fwo/IDN60801/IDN60801.95749.axf

JavaScript Object Notation format (JSON) in row-major order
http://www.bom.gov.au/fwo/IDN60801/IDN60801.95749.json